sensor_id;sensor_type;location;lat;lon;timestamp;temperature;humidity
1546;DHT22;766;51.502;9.752;2023-02-03T00:00:05;4.30;99.90
1546;DHT22;766;51.502;9.752;2023-02-03T00:02:37;4.40;99.90
1546;DHT22;766;51.502;9.752;2023-02-03T00:05:08;4.50;99.90
1546;DHT22;766;51.502;9.752;2023-02-03T00:07:37;4.50;99.90
1546;DHT22;766;51.502;9.752;2023-02-03T00:10:07;4.60;99.90
1546;DHT22;766;51.502;9.752;2023-02-03T00:12:35;4.60;99.90
1546;DHT22;766;51.502;9.752;2023-02-03T00:15:04;4.60;99.90
1546;DHT22;766;51.502;9.752;2023-02-03T00:17:32;4.70;99.90
1546;DHT22;766;51.502;9.752;2023-02-03T00:20:00;4.70;99.90
1546;DHT22;766;51.502;9.752;2023-02-03T00:22:30;4.70;99.90
1546;DHT22;766;51.502;9.752;2023-02-03T00:25:05;4.70;99.90
1546;DHT22;766;51.502;9.752;2023-02-03T00:27:33;4.70;99.90
1546;DHT22;766;51.502;9.752;2023-02-03T00:30:02;4.70;99.90
1546;DHT22;766;51.502;9.752;2023-02-03T00:32:30;4.70;99.90
1546;DHT22;766;51.502;9.752;2023-02-03T00:34:59;4.70;99.90
1546;DHT22;766;51.502;9.752;2023-02-03T00:37:27;4.80;99.90
1546;DHT22;766;51.502;9.752;2023-02-03T00:39:57;4.70;99.90
1546;DHT22;766;51.502;9.752;2023-02-03T00:42:25;4.70;99.90
1546;DHT22;766;51.502;9.752;2023-02-03T00:44:54;4.70;99.90
1546;DHT22;766;51.502;9.752;2023-02-03T00:47:22;4.80;99.90
1546;DHT22;766;51.502;9.752;2023-02-03T00:49:50;4.70;99.90
1546;DHT22;766;51.502;9.752;2023-02-03T00:52:19;4.70;99.90
1546;DHT22;766;51.502;9.752;2023-02-03T00:54:47;4.80;99.90
1546;DHT22;766;51.502;9.752;2023-02-03T00:57:17;4.70;99.90
1546;DHT22;766;51.502;9.752;2023-02-03T00:59:45;4.80;99.90
1546;DHT22;766;51.502;9.752;2023-02-03T01:02:14;4.80;99.90
1546;DHT22;766;51.502;9.752;2023-02-03T01:04:43;4.90;99.90
1546;DHT22;766;51.502;9.752;2023-02-03T01:07:13;4.90;99.90
1546;DHT22;766;51.502;9.752;2023-02-03T01:09:42;4.90;99.90
1546;DHT22;766;51.502;9.752;2023-02-03T01:12:10;4.90;99.90
1546;DHT22;766;51.502;9.752;2023-02-03T01:14:40;4.90;99.90
1546;DHT22;766;51.502;9.752;2023-02-03T01:17:08;4.90;99.90
1546;DHT22;766;51.502;9.752;2023-02-03T01:19:36;4.90;99.90
1546;DHT22;766;51.502;9.752;2023-02-03T01:22:05;4.90;99.90
1546;DHT22;766;51.502;9.752;2023-02-03T01:24:33;4.90;99.90
1546;DHT22;766;51.502;9.752;2023-02-03T01:27:01;4.90;99.90
1546;DHT22;766;51.502;9.752;2023-02-03T01:29:29;4.90;99.90
1546;DHT22;766;51.502;9.752;2023-02-03T01:31:59;4.90;99.90
1546;DHT22;766;51.502;9.752;2023-02-03T01:34:27;4.90;99.90
1546;DHT22;766;51.502;9.752;2023-02-03T01:36:56;4.80;99.90
1546;DHT22;766;51.502;9.752;2023-02-03T01:39:24;4.90;99.90
1546;DHT22;766;51.502;9.752;2023-02-03T01:41:54;4.90;99.90
1546;DHT22;766;51.502;9.752;2023-02-03T01:44:47;4.90;99.90
1546;DHT22;766;51.502;9.752;2023-02-03T01:47:23;4.90;99.90
1546;DHT22;766;51.502;9.752;2023-02-03T01:49:59;4.90;99.90
1546;DHT22;766;51.502;9.752;2023-02-03T01:52:30;4.90;99.90
1546;DHT22;766;51.502;9.752;2023-02-03T01:55:02;4.90;99.90
1546;DHT22;766;51.502;9.752;2023-02-03T01:57:34;4.90;99.90
1546;DHT22;766;51.502;9.752;2023-02-03T02:00:06;4.90;99.90
1546;DHT22;766;51.502;9.752;2023-02-03T02:02:37;4.90;99.90
1546;DHT22;766;51.502;9.752;2023-02-03T02:05:08;4.90;99.90
1546;DHT22;766;51.502;9.752;2023-02-03T02:07:39;5.00;99.90
1546;DHT22;766;51.502;9.752;2023-02-03T02:10:09;5.10;99.90
1546;DHT22;766;51.502;9.752;2023-02-03T02:12:37;5.10;99.90
1546;DHT22;766;51.502;9.752;2023-02-03T02:15:07;5.10;99.90
1546;DHT22;766;51.502;9.752;2023-02-03T02:18:02;5.10;99.90
1546;DHT22;766;51.502;9.752;2023-02-03T02:26:49;5.30;99.90
1546;DHT22;766;51.502;9.752;2023-02-03T02:32:27;5.40;99.90
1546;DHT22;766;51.502;9.752;2023-02-03T02:35:06;5.50;99.90
1546;DHT22;766;51.502;9.752;2023-02-03T02:37:46;5.50;99.90
1546;DHT22;766;51.502;9.752;2023-02-03T02:40:22;5.60;99.90
1546;DHT22;766;51.502;9.752;2023-02-03T02:43:01;5.60;99.90
1546;DHT22;766;51.502;9.752;2023-02-03T02:45:40;5.70;99.90
1546;DHT22;766;51.502;9.752;2023-02-03T02:48:19;5.70;99.90
1546;DHT22;766;51.502;9.752;2023-02-03T02:50:51;5.70;99.90
1546;DHT22;766;51.502;9.752;2023-02-03T02:53:22;5.70;99.90
1546;DHT22;766;51.502;9.752;2023-02-03T02:55:52;5.70;99.90
1546;DHT22;766;51.502;9.752;2023-02-03T02:58:23;5.70;99.90
1546;DHT22;766;51.502;9.752;2023-02-03T03:00:54;5.70;99.90
1546;DHT22;766;51.502;9.752;2023-02-03T03:03:24;5.70;99.90
1546;DHT22;766;51.502;9.752;2023-02-03T03:05:55;5.80;99.90
1546;DHT22;766;51.502;9.752;2023-02-03T03:08:29;5.80;99.90
1546;DHT22;766;51.502;9.752;2023-02-03T03:11:01;5.80;99.90
1546;DHT22;766;51.502;9.752;2023-02-03T03:13:33;5.80;99.90
1546;DHT22;766;51.502;9.752;2023-02-03T03:16:03;5.80;99.90
1546;DHT22;766;51.502;9.752;2023-02-03T03:18:37;5.90;99.90
1546;DHT22;766;51.502;9.752;2023-02-03T03:21:12;5.90;99.90
1546;DHT22;766;51.502;9.752;2023-02-03T03:23:45;5.90;99.90
1546;DHT22;766;51.502;9.752;2023-02-03T03:26:19;5.90;99.90
1546;DHT22;766;51.502;9.752;2023-02-03T03:28:50;5.90;99.90
1546;DHT22;766;51.502;9.752;2023-02-03T03:31:20;5.90;99.90
1546;DHT22;766;51.502;9.752;2023-02-03T03:33:50;5.90;99.90
1546;DHT22;766;51.502;9.752;2023-02-03T03:36:22;5.90;99.90
1546;DHT22;766;51.502;9.752;2023-02-03T03:38:56;5.90;99.90
1546;DHT22;766;51.502;9.752;2023-02-03T03:41:35;5.80;99.90
1546;DHT22;766;51.502;9.752;2023-02-03T03:44:09;5.80;99.90
1546;DHT22;766;51.502;9.752;2023-02-03T03:46:42;5.90;99.90
1546;DHT22;766;51.502;9.752;2023-02-03T03:49:15;6.00;99.90
1546;DHT22;766;51.502;9.752;2023-02-03T03:51:47;6.00;99.90
1546;DHT22;766;51.502;9.752;2023-02-03T03:54:19;6.00;99.90
1546;DHT22;766;51.502;9.752;2023-02-03T03:56:52;6.00;99.90
1546;DHT22;766;51.502;9.752;2023-02-03T03:59:25;6.10;99.90
1546;DHT22;766;51.502;9.752;2023-02-03T04:01:56;6.10;99.90
1546;DHT22;766;51.502;9.752;2023-02-03T04:04:34;6.10;99.90
1546;DHT22;766;51.502;9.752;2023-02-03T04:07:03;6.10;99.90
1546;DHT22;766;51.502;9.752;2023-02-03T04:09:32;6.10;99.90
1546;DHT22;766;51.502;9.752;2023-02-03T04:12:02;6.10;99.90
1546;DHT22;766;51.502;9.752;2023-02-03T04:14:33;6.20;99.90
1546;DHT22;766;51.502;9.752;2023-02-03T04:17:01;6.10;99.90
1546;DHT22;766;51.502;9.752;2023-02-03T04:19:29;6.20;99.90
1546;DHT22;766;51.502;9.752;2023-02-03T04:21:59;6.20;99.90
1546;DHT22;766;51.502;9.752;2023-02-03T04:24:27;6.20;99.90
1546;DHT22;766;51.502;9.752;2023-02-03T04:26:55;6.30;99.90
1546;DHT22;766;51.502;9.752;2023-02-03T04:29:24;6.30;99.90
1546;DHT22;766;51.502;9.752;2023-02-03T04:31:52;6.30;99.90
1546;DHT22;766;51.502;9.752;2023-02-03T04:34:21;6.30;99.90
1546;DHT22;766;51.502;9.752;2023-02-03T04:36:49;6.20;99.90
1546;DHT22;766;51.502;9.752;2023-02-03T04:39:19;6.30;99.90
1546;DHT22;766;51.502;9.752;2023-02-03T04:41:47;6.20;99.90
1546;DHT22;766;51.502;9.752;2023-02-03T04:44:15;6.30;99.90
1546;DHT22;766;51.502;9.752;2023-02-03T04:46:43;6.20;99.90
1546;DHT22;766;51.502;9.752;2023-02-03T04:49:11;6.20;99.90
1546;DHT22;766;51.502;9.752;2023-02-03T04:51:43;6.30;99.90
1546;DHT22;766;51.502;9.752;2023-02-03T04:54:11;6.30;99.90
1546;DHT22;766;51.502;9.752;2023-02-03T04:56:41;6.30;99.90
1546;DHT22;766;51.502;9.752;2023-02-03T04:59:10;6.30;99.90
1546;DHT22;766;51.502;9.752;2023-02-03T05:01:38;6.30;99.90
1546;DHT22;766;51.502;9.752;2023-02-03T05:04:09;6.30;99.90
1546;DHT22;766;51.502;9.752;2023-02-03T05:06:37;6.40;99.90
1546;DHT22;766;51.502;9.752;2023-02-03T05:09:05;6.40;99.90
1546;DHT22;766;51.502;9.752;2023-02-03T05:11:34;6.40;99.90
1546;DHT22;766;51.502;9.752;2023-02-03T05:14:04;6.40;99.90
1546;DHT22;766;51.502;9.752;2023-02-03T05:16:32;6.40;99.90
1546;DHT22;766;51.502;9.752;2023-02-03T05:19:00;6.30;99.90
1546;DHT22;766;51.502;9.752;2023-02-03T05:21:29;6.30;99.90
1546;DHT22;766;51.502;9.752;2023-02-03T05:23:57;6.30;99.90
1546;DHT22;766;51.502;9.752;2023-02-03T05:26:26;6.40;99.90
1546;DHT22;766;51.502;9.752;2023-02-03T05:28:55;6.40;99.90
1546;DHT22;766;51.502;9.752;2023-02-03T05:31:25;6.40;99.90
1546;DHT22;766;51.502;9.752;2023-02-03T05:33:53;6.40;99.90
1546;DHT22;766;51.502;9.752;2023-02-03T05:36:21;6.40;99.90
1546;DHT22;766;51.502;9.752;2023-02-03T05:38:49;6.40;99.90
1546;DHT22;766;51.502;9.752;2023-02-03T05:41:18;6.50;99.90
1546;DHT22;766;51.502;9.752;2023-02-03T05:44:04;6.50;99.90
1546;DHT22;766;51.502;9.752;2023-02-03T05:46:34;6.50;99.90
1546;DHT22;766;51.502;9.752;2023-02-03T05:49:02;6.50;99.90
1546;DHT22;766;51.502;9.752;2023-02-03T05:51:30;6.50;99.90
1546;DHT22;766;51.502;9.752;2023-02-03T05:53:58;6.50;99.90
1546;DHT22;766;51.502;9.752;2023-02-03T05:56:26;6.50;99.90
1546;DHT22;766;51.502;9.752;2023-02-03T05:58:55;6.60;99.90
1546;DHT22;766;51.502;9.752;2023-02-03T06:01:23;6.60;99.90
1546;DHT22;766;51.502;9.752;2023-02-03T06:03:53;6.50;99.90
1546;DHT22;766;51.502;9.752;2023-02-03T06:06:22;6.60;99.90
1546;DHT22;766;51.502;9.752;2023-02-03T06:08:51;6.60;99.90
1546;DHT22;766;51.502;9.752;2023-02-03T06:11:22;6.50;99.90
1546;DHT22;766;51.502;9.752;2023-02-03T06:13:51;6.60;99.90
1546;DHT22;766;51.502;9.752;2023-02-03T06:16:19;6.60;99.90
1546;DHT22;766;51.502;9.752;2023-02-03T06:18:50;6.60;99.90
1546;DHT22;766;51.502;9.752;2023-02-03T06:21:20;6.60;99.90
1546;DHT22;766;51.502;9.752;2023-02-03T06:23:49;6.60;99.90
1546;DHT22;766;51.502;9.752;2023-02-03T06:26:17;6.60;99.90
1546;DHT22;766;51.502;9.752;2023-02-03T06:28:45;6.60;99.90
1546;DHT22;766;51.502;9.752;2023-02-03T06:31:14;6.60;99.90
1546;DHT22;766;51.502;9.752;2023-02-03T06:33:48;6.70;99.90
1546;DHT22;766;51.502;9.752;2023-02-03T06:36:16;6.70;99.90
1546;DHT22;766;51.502;9.752;2023-02-03T06:38:46;6.60;99.90
1546;DHT22;766;51.502;9.752;2023-02-03T06:41:16;6.60;99.90
1546;DHT22;766;51.502;9.752;2023-02-03T06:43:45;6.70;99.90
1546;DHT22;766;51.502;9.752;2023-02-03T06:46:13;6.70;99.90
1546;DHT22;766;51.502;9.752;2023-02-03T06:48:41;6.70;99.90
1546;DHT22;766;51.502;9.752;2023-02-03T06:51:10;6.80;99.90
1546;DHT22;766;51.502;9.752;2023-02-03T06:53:38;6.70;99.90
1546;DHT22;766;51.502;9.752;2023-02-03T06:56:10;6.70;99.90
1546;DHT22;766;51.502;9.752;2023-02-03T06:58:39;6.70;99.90
1546;DHT22;766;51.502;9.752;2023-02-03T07:01:07;6.70;99.90
1546;DHT22;766;51.502;9.752;2023-02-03T07:03:36;6.70;99.90
1546;DHT22;766;51.502;9.752;2023-02-03T07:06:07;6.70;99.90
1546;DHT22;766;51.502;9.752;2023-02-03T07:08:39;6.70;99.90
1546;DHT22;766;51.502;9.752;2023-02-03T07:11:09;6.70;99.90
1546;DHT22;766;51.502;9.752;2023-02-03T07:13:38;6.60;99.90
1546;DHT22;766;51.502;9.752;2023-02-03T07:16:06;6.60;99.90
1546;DHT22;766;51.502;9.752;2023-02-03T07:18:38;6.60;99.90
1546;DHT22;766;51.502;9.752;2023-02-03T07:21:14;6.60;99.90
1546;DHT22;766;51.502;9.752;2023-02-03T07:23:45;6.60;99.90
1546;DHT22;766;51.502;9.752;2023-02-03T07:26:16;6.60;99.90
1546;DHT22;766;51.502;9.752;2023-02-03T07:28:45;6.60;99.90
1546;DHT22;766;51.502;9.752;2023-02-03T07:31:14;6.60;99.90
1546;DHT22;766;51.502;9.752;2023-02-03T07:33:42;6.70;99.90
1546;DHT22;766;51.502;9.752;2023-02-03T07:36:13;6.70;99.90
1546;DHT22;766;51.502;9.752;2023-02-03T07:38:42;6.70;99.90
1546;DHT22;766;51.502;9.752;2023-02-03T07:41:10;6.70;99.90
1546;DHT22;766;51.502;9.752;2023-02-03T07:43:40;6.70;99.90
1546;DHT22;766;51.502;9.752;2023-02-03T07:46:08;6.70;99.90
1546;DHT22;766;51.502;9.752;2023-02-03T07:48:39;6.70;99.90
1546;DHT22;766;51.502;9.752;2023-02-03T07:51:08;6.70;99.90
1546;DHT22;766;51.502;9.752;2023-02-03T07:53:36;6.70;99.90
1546;DHT22;766;51.502;9.752;2023-02-03T07:56:04;6.70;99.90
1546;DHT22;766;51.502;9.752;2023-02-03T07:58:41;6.70;99.90
1546;DHT22;766;51.502;9.752;2023-02-03T08:01:11;6.70;99.90
1546;DHT22;766;51.502;9.752;2023-02-03T08:03:40;6.70;99.90
1546;DHT22;766;51.502;9.752;2023-02-03T08:06:09;6.70;99.90
1546;DHT22;766;51.502;9.752;2023-02-03T08:08:37;6.70;99.90
1546;DHT22;766;51.502;9.752;2023-02-03T08:11:09;6.70;99.90
1546;DHT22;766;51.502;9.752;2023-02-03T08:13:37;6.70;99.90
1546;DHT22;766;51.502;9.752;2023-02-03T08:16:07;6.60;99.90
1546;DHT22;766;51.502;9.752;2023-02-03T08:18:36;6.60;99.90
1546;DHT22;766;51.502;9.752;2023-02-03T08:21:05;6.60;99.90
1546;DHT22;766;51.502;9.752;2023-02-03T08:23:33;6.60;99.90
1546;DHT22;766;51.502;9.752;2023-02-03T08:26:01;6.70;99.90
1546;DHT22;766;51.502;9.752;2023-02-03T08:28:40;6.70;99.90
1546;DHT22;766;51.502;9.752;2023-02-03T08:31:10;6.70;99.90
1546;DHT22;766;51.502;9.752;2023-02-03T08:33:42;6.70;99.90
1546;DHT22;766;51.502;9.752;2023-02-03T08:36:10;6.70;99.90
1546;DHT22;766;51.502;9.752;2023-02-03T08:38:39;6.70;99.90
1546;DHT22;766;51.502;9.752;2023-02-03T08:41:09;6.70;99.90
1546;DHT22;766;51.502;9.752;2023-02-03T08:43:38;6.70;99.90
1546;DHT22;766;51.502;9.752;2023-02-03T08:46:08;6.70;99.90
1546;DHT22;766;51.502;9.752;2023-02-03T08:48:38;6.70;99.90
1546;DHT22;766;51.502;9.752;2023-02-03T08:51:15;6.70;99.90
1546;DHT22;766;51.502;9.752;2023-02-03T08:53:43;6.70;99.90
1546;DHT22;766;51.502;9.752;2023-02-03T08:56:15;6.80;99.90
1546;DHT22;766;51.502;9.752;2023-02-03T08:58:43;6.80;99.90
1546;DHT22;766;51.502;9.752;2023-02-03T09:01:13;6.80;99.90
1546;DHT22;766;51.502;9.752;2023-02-03T09:03:43;6.90;99.90
1546;DHT22;766;51.502;9.752;2023-02-03T09:06:12;6.90;99.90
1546;DHT22;766;51.502;9.752;2023-02-03T09:08:43;6.80;99.90
1546;DHT22;766;51.502;9.752;2023-02-03T09:11:14;6.80;99.90
1546;DHT22;766;51.502;9.752;2023-02-03T09:13:43;6.80;99.90
1546;DHT22;766;51.502;9.752;2023-02-03T09:16:13;6.80;99.90
1546;DHT22;766;51.502;9.752;2023-02-03T09:18:44;6.90;99.90
1546;DHT22;766;51.502;9.752;2023-02-03T09:21:14;6.90;99.90
1546;DHT22;766;51.502;9.752;2023-02-03T09:24:03;6.80;99.90
1546;DHT22;766;51.502;9.752;2023-02-03T09:26:32;6.80;99.90
1546;DHT22;766;51.502;9.752;2023-02-03T09:29:00;6.80;99.90
1546;DHT22;766;51.502;9.752;2023-02-03T09:31:31;6.80;99.90
1546;DHT22;766;51.502;9.752;2023-02-03T09:34:01;6.80;99.90
1546;DHT22;766;51.502;9.752;2023-02-03T09:36:29;6.80;99.90
1546;DHT22;766;51.502;9.752;2023-02-03T09:38:57;6.90;99.90
1546;DHT22;766;51.502;9.752;2023-02-03T09:41:42;6.80;99.90
1546;DHT22;766;51.502;9.752;2023-02-03T09:44:15;6.90;99.90
1546;DHT22;766;51.502;9.752;2023-02-03T09:46:47;6.90;99.90
1546;DHT22;766;51.502;9.752;2023-02-03T09:49:25;6.80;99.90
1546;DHT22;766;51.502;9.752;2023-02-03T09:51:58;6.90;99.90
1546;DHT22;766;51.502;9.752;2023-02-03T09:54:34;6.90;99.90
1546;DHT22;766;51.502;9.752;2023-02-03T09:57:06;6.90;99.90
1546;DHT22;766;51.502;9.752;2023-02-03T09:59:39;6.90;99.90
1546;DHT22;766;51.502;9.752;2023-02-03T10:05:06;6.90;99.90
1546;DHT22;766;51.502;9.752;2023-02-03T10:07:43;6.90;99.90
1546;DHT22;766;51.502;9.752;2023-02-03T10:10:20;6.90;99.90
1546;DHT22;766;51.502;9.752;2023-02-03T10:13:09;6.90;99.90
1546;DHT22;766;51.502;9.752;2023-02-03T10:16:07;6.90;99.90
1546;DHT22;766;51.502;9.752;2023-02-03T10:18:46;7.00;99.90
1546;DHT22;766;51.502;9.752;2023-02-03T10:21:22;7.00;99.90
1546;DHT22;766;51.502;9.752;2023-02-03T10:23:54;7.00;99.90
1546;DHT22;766;51.502;9.752;2023-02-03T10:26:27;7.00;99.90
1546;DHT22;766;51.502;9.752;2023-02-03T10:28:57;7.00;99.90
1546;DHT22;766;51.502;9.752;2023-02-03T10:31:27;7.00;99.90
1546;DHT22;766;51.502;9.752;2023-02-03T10:33:59;7.10;99.90
1546;DHT22;766;51.502;9.752;2023-02-03T10:36:41;7.10;99.90
1546;DHT22;766;51.502;9.752;2023-02-03T10:39:18;7.10;99.90
1546;DHT22;766;51.502;9.752;2023-02-03T10:41:50;7.20;99.90
1546;DHT22;766;51.502;9.752;2023-02-03T10:44:19;7.20;99.90
1546;DHT22;766;51.502;9.752;2023-02-03T10:46:50;7.20;99.90
1546;DHT22;766;51.502;9.752;2023-02-03T10:49:18;7.20;99.90
1546;DHT22;766;51.502;9.752;2023-02-03T10:51:50;7.30;99.90
1546;DHT22;766;51.502;9.752;2023-02-03T10:54:29;7.30;99.90
1546;DHT22;766;51.502;9.752;2023-02-03T10:57:02;7.30;99.90
1546;DHT22;766;51.502;9.752;2023-02-03T10:59:34;7.30;99.90
1546;DHT22;766;51.502;9.752;2023-02-03T11:02:21;7.30;99.90
1546;DHT22;766;51.502;9.752;2023-02-03T11:05:10;7.30;99.90
1546;DHT22;766;51.502;9.752;2023-02-03T11:07:41;7.30;99.90
1546;DHT22;766;51.502;9.752;2023-02-03T11:10:30;7.30;99.90
1546;DHT22;766;51.502;9.752;2023-02-03T11:13:19;7.30;99.90
1546;DHT22;766;51.502;9.752;2023-02-03T11:15:51;7.30;99.90
1546;DHT22;766;51.502;9.752;2023-02-03T11:18:40;7.30;99.90
1546;DHT22;766;51.502;9.752;2023-02-03T11:21:14;7.40;99.90
1546;DHT22;766;51.502;9.752;2023-02-03T11:23:48;7.40;99.90
1546;DHT22;766;51.502;9.752;2023-02-03T11:26:19;7.40;99.90
1546;DHT22;766;51.502;9.752;2023-02-03T11:28:51;7.50;99.90
1546;DHT22;766;51.502;9.752;2023-02-03T11:31:23;7.50;99.90
1546;DHT22;766;51.502;9.752;2023-02-03T11:33:55;7.50;99.90
1546;DHT22;766;51.502;9.752;2023-02-03T11:36:26;7.50;99.90
1546;DHT22;766;51.502;9.752;2023-02-03T11:39:13;7.50;99.90
1546;DHT22;766;51.502;9.752;2023-02-03T11:41:43;7.50;99.90
1546;DHT22;766;51.502;9.752;2023-02-03T11:44:17;7.50;99.90
1546;DHT22;766;51.502;9.752;2023-02-03T11:46:47;7.50;99.90
1546;DHT22;766;51.502;9.752;2023-02-03T11:55:29;7.40;99.90
1546;DHT22;766;51.502;9.752;2023-02-03T12:01:00;7.50;99.90
1546;DHT22;766;51.502;9.752;2023-02-03T12:04:05;7.50;99.90
1546;DHT22;766;51.502;9.752;2023-02-03T12:06:59;7.50;99.90
1546;DHT22;766;51.502;9.752;2023-02-03T12:09:41;7.50;99.90
1546;DHT22;766;51.502;9.752;2023-02-03T12:12:39;7.50;99.90
1546;DHT22;766;51.502;9.752;2023-02-03T12:18:23;7.60;99.90
1546;DHT22;766;51.502;9.752;2023-02-03T12:21:03;7.70;99.90
1546;DHT22;766;51.502;9.752;2023-02-03T12:23:43;7.70;99.90
1546;DHT22;766;51.502;9.752;2023-02-03T12:26:20;7.60;99.90
1546;DHT22;766;51.502;9.752;2023-02-03T12:28:55;7.60;99.90
1546;DHT22;766;51.502;9.752;2023-02-03T12:31:31;7.60;99.90
1546;DHT22;766;51.502;9.752;2023-02-03T12:34:09;7.60;99.90
1546;DHT22;766;51.502;9.752;2023-02-03T12:36:43;7.30;99.90
1546;DHT22;766;51.502;9.752;2023-02-03T12:39:18;7.10;99.90
1546;DHT22;766;51.502;9.752;2023-02-03T12:41:51;6.90;99.90
1546;DHT22;766;51.502;9.752;2023-02-03T12:44:31;6.80;99.90
1546;DHT22;766;51.502;9.752;2023-02-03T12:47:05;6.70;99.90
1546;DHT22;766;51.502;9.752;2023-02-03T12:49:40;6.70;99.90
1546;DHT22;766;51.502;9.752;2023-02-03T12:52:17;6.60;99.90
1546;DHT22;766;51.502;9.752;2023-02-03T12:54:57;6.60;99.90
1546;DHT22;766;51.502;9.752;2023-02-03T12:57:29;6.60;99.90
1546;DHT22;766;51.502;9.752;2023-02-03T13:00:09;6.60;99.90
1546;DHT22;766;51.502;9.752;2023-02-03T13:02:49;6.60;99.90
1546;DHT22;766;51.502;9.752;2023-02-03T13:05:25;6.60;99.90
1546;DHT22;766;51.502;9.752;2023-02-03T13:08:03;6.60;99.90
1546;DHT22;766;51.502;9.752;2023-02-03T13:10:39;6.60;99.90
1546;DHT22;766;51.502;9.752;2023-02-03T13:13:12;6.60;99.90
1546;DHT22;766;51.502;9.752;2023-02-03T13:15:45;6.70;99.90
1546;DHT22;766;51.502;9.752;2023-02-03T13:18:22;6.70;99.90
1546;DHT22;766;51.502;9.752;2023-02-03T13:20:52;6.70;99.90
1546;DHT22;766;51.502;9.752;2023-02-03T13:23:23;6.80;99.90
1546;DHT22;766;51.502;9.752;2023-02-03T13:29:03;6.80;99.90
1546;DHT22;766;51.502;9.752;2023-02-03T13:31:42;6.90;99.90
1546;DHT22;766;51.502;9.752;2023-02-03T13:34:33;6.90;99.90
1546;DHT22;766;51.502;9.752;2023-02-03T13:37:32;6.90;99.90
1546;DHT22;766;51.502;9.752;2023-02-03T13:40:14;6.90;99.90
1546;DHT22;766;51.502;9.752;2023-02-03T13:42:46;6.90;99.90
1546;DHT22;766;51.502;9.752;2023-02-03T13:45:23;6.90;99.90
1546;DHT22;766;51.502;9.752;2023-02-03T13:47:55;7.00;99.90
1546;DHT22;766;51.502;9.752;2023-02-03T13:50:27;7.00;99.90
1546;DHT22;766;51.502;9.752;2023-02-03T13:52:59;7.00;99.90
1546;DHT22;766;51.502;9.752;2023-02-03T13:55:34;7.00;99.90
1546;DHT22;766;51.502;9.752;2023-02-03T13:58:04;7.00;99.90
1546;DHT22;766;51.502;9.752;2023-02-03T14:01:06;6.90;99.90
1546;DHT22;766;51.502;9.752;2023-02-03T14:03:54;6.90;99.90
1546;DHT22;766;51.502;9.752;2023-02-03T14:07:00;7.00;99.90
1546;DHT22;766;51.502;9.752;2023-02-03T14:09:36;7.00;99.90
1546;DHT22;766;51.502;9.752;2023-02-03T14:15:30;7.00;99.90
1546;DHT22;766;51.502;9.752;2023-02-03T14:18:04;7.00;99.90
1546;DHT22;766;51.502;9.752;2023-02-03T14:21:22;7.00;99.90
1546;DHT22;766;51.502;9.752;2023-02-03T14:23:56;7.00;99.90
1546;DHT22;766;51.502;9.752;2023-02-03T14:26:38;7.00;99.90
1546;DHT22;766;51.502;9.752;2023-02-03T14:29:10;7.10;99.90
1546;DHT22;766;51.502;9.752;2023-02-03T14:31:58;7.10;99.90
1546;DHT22;766;51.502;9.752;2023-02-03T14:34:34;7.10;99.90
1546;DHT22;766;51.502;9.752;2023-02-03T14:37:13;7.00;99.90
1546;DHT22;766;51.502;9.752;2023-02-03T14:40:03;7.00;99.90
1546;DHT22;766;51.502;9.752;2023-02-03T14:43:19;6.90;99.90
1546;DHT22;766;51.502;9.752;2023-02-03T14:46:11;6.90;99.90
1546;DHT22;766;51.502;9.752;2023-02-03T14:49:13;6.90;99.90
1546;DHT22;766;51.502;9.752;2023-02-03T14:55:03;7.00;99.90
1546;DHT22;766;51.502;9.752;2023-02-03T14:57:41;7.00;99.90
1546;DHT22;766;51.502;9.752;2023-02-03T15:00:27;6.90;99.90
1546;DHT22;766;51.502;9.752;2023-02-03T15:03:26;7.00;99.90
1546;DHT22;766;51.502;9.752;2023-02-03T15:05:59;7.00;99.90
1546;DHT22;766;51.502;9.752;2023-02-03T15:08:42;7.00;99.90
1546;DHT22;766;51.502;9.752;2023-02-03T15:11:30;7.00;99.90
1546;DHT22;766;51.502;9.752;2023-02-03T15:14:20;7.00;99.90
1546;DHT22;766;51.502;9.752;2023-02-03T15:16:54;7.00;99.90
1546;DHT22;766;51.502;9.752;2023-02-03T15:19:25;7.00;99.90
1546;DHT22;766;51.502;9.752;2023-02-03T15:21:54;7.00;99.90
1546;DHT22;766;51.502;9.752;2023-02-03T15:24:23;6.90;99.90
1546;DHT22;766;51.502;9.752;2023-02-03T15:26:54;6.90;99.90
1546;DHT22;766;51.502;9.752;2023-02-03T15:29:30;6.80;99.90
1546;DHT22;766;51.502;9.752;2023-02-03T15:32:03;6.90;99.90
1546;DHT22;766;51.502;9.752;2023-02-03T15:34:36;6.90;99.90
1546;DHT22;766;51.502;9.752;2023-02-03T15:37:11;6.80;99.90
1546;DHT22;766;51.502;9.752;2023-02-03T15:39:47;6.80;99.90
1546;DHT22;766;51.502;9.752;2023-02-03T15:42:21;6.80;99.90
1546;DHT22;766;51.502;9.752;2023-02-03T15:44:55;6.80;99.90
1546;DHT22;766;51.502;9.752;2023-02-03T15:47:29;6.80;99.90
1546;DHT22;766;51.502;9.752;2023-02-03T15:50:09;6.80;99.90
1546;DHT22;766;51.502;9.752;2023-02-03T15:52:43;6.80;99.90
1546;DHT22;766;51.502;9.752;2023-02-03T15:55:17;6.70;99.90
1546;DHT22;766;51.502;9.752;2023-02-03T15:57:49;6.70;99.90
1546;DHT22;766;51.502;9.752;2023-02-03T16:00:33;6.70;99.90
1546;DHT22;766;51.502;9.752;2023-02-03T16:03:12;6.80;99.90
1546;DHT22;766;51.502;9.752;2023-02-03T16:05:42;6.70;99.90
1546;DHT22;766;51.502;9.752;2023-02-03T16:08:36;6.70;99.90
1546;DHT22;766;51.502;9.752;2023-02-03T16:11:28;6.70;99.90
1546;DHT22;766;51.502;9.752;2023-02-03T16:14:00;6.60;99.90
1546;DHT22;766;51.502;9.752;2023-02-03T16:16:34;6.60;99.90
1546;DHT22;766;51.502;9.752;2023-02-03T16:19:04;6.60;99.90
1546;DHT22;766;51.502;9.752;2023-02-03T16:21:35;6.60;99.90
1546;DHT22;766;51.502;9.752;2023-02-03T16:24:04;6.50;99.90
1546;DHT22;766;51.502;9.752;2023-02-03T16:26:33;6.60;99.90
1546;DHT22;766;51.502;9.752;2023-02-03T16:29:15;6.50;99.90
1546;DHT22;766;51.502;9.752;2023-02-03T16:32:01;6.50;99.90
1546;DHT22;766;51.502;9.752;2023-02-03T16:34:47;6.40;99.90
1546;DHT22;766;51.502;9.752;2023-02-03T16:37:42;6.40;99.90
1546;DHT22;766;51.502;9.752;2023-02-03T16:40:27;6.40;99.90
1546;DHT22;766;51.502;9.752;2023-02-03T16:43:14;6.40;99.90
1546;DHT22;766;51.502;9.752;2023-02-03T16:46:10;6.40;99.90
1546;DHT22;766;51.502;9.752;2023-02-03T16:48:56;6.30;99.90
1546;DHT22;766;51.502;9.752;2023-02-03T16:51:42;6.20;99.90
1546;DHT22;766;51.502;9.752;2023-02-03T16:54:12;6.20;99.90
1546;DHT22;766;51.502;9.752;2023-02-03T16:56:40;6.20;99.90
1546;DHT22;766;51.502;9.752;2023-02-03T16:59:09;6.20;99.90
1546;DHT22;766;51.502;9.752;2023-02-03T17:01:39;6.20;99.90
1546;DHT22;766;51.502;9.752;2023-02-03T17:04:07;6.20;99.90
1546;DHT22;766;51.502;9.752;2023-02-03T17:06:37;6.20;99.90
1546;DHT22;766;51.502;9.752;2023-02-03T17:09:05;6.20;99.90
1546;DHT22;766;51.502;9.752;2023-02-03T17:11:33;6.10;99.90
1546;DHT22;766;51.502;9.752;2023-02-03T17:14:02;6.10;99.90
1546;DHT22;766;51.502;9.752;2023-02-03T17:16:30;6.10;99.90
1546;DHT22;766;51.502;9.752;2023-02-03T17:19:00;6.10;99.90
1546;DHT22;766;51.502;9.752;2023-02-03T17:22:07;6.10;99.90
1546;DHT22;766;51.502;9.752;2023-02-03T17:24:44;6.20;99.90
1546;DHT22;766;51.502;9.752;2023-02-03T17:27:12;6.10;99.90
1546;DHT22;766;51.502;9.752;2023-02-03T17:29:40;6.10;99.90
1546;DHT22;766;51.502;9.752;2023-02-03T17:32:08;6.10;99.90
1546;DHT22;766;51.502;9.752;2023-02-03T17:34:42;6.10;99.90
1546;DHT22;766;51.502;9.752;2023-02-03T17:37:11;6.00;99.90
1546;DHT22;766;51.502;9.752;2023-02-03T17:39:39;6.00;99.90
1546;DHT22;766;51.502;9.752;2023-02-03T17:42:25;6.00;99.90
1546;DHT22;766;51.502;9.752;2023-02-03T17:45:11;5.90;99.90
1546;DHT22;766;51.502;9.752;2023-02-03T17:47:57;6.00;99.90
1546;DHT22;766;51.502;9.752;2023-02-03T17:50:46;6.00;99.90